Time;durP1;ratioP1;P1;durP2;ratioP2;P2;SDS_P1;SDS_P2;PMS_P1;PMS_P2;Temp;Humidity;BMP_temperature;BMP_pressure;BME280_temperature;BME280_humidity;BME280_pressure;Samples;Min_cycle;Max_cycle;Signal;HPM_P1;HPM_P2
2022/05/25 00:00:45;;;;;;;2.57;1.93;;;20.40;54.90;21.80;100377.00;;;;4989220;28;20688;-46
2022/05/25 00:03:11;;;;;;;2.30;2.10;;;20.50;55.00;21.80;100444.00;;;;4989984;28;20178;-46
2022/05/25 00:05:36;;;;;;;2.10;1.90;;;20.50;55.10;21.80;100446.00;;;;4989396;28;20821;-48
2022/05/25 00:08:02;;;;;;;3.43;2.10;;;20.40;55.00;21.80;100443.00;;;;4987677;28;20185;-47
2022/05/25 00:10:28;;;;;;;3.07;2.10;;;20.40;55.10;21.70;100448.00;;;;4987708;28;20210;-47
2022/05/25 00:12:54;;;;;;;3.23;2.47;;;20.40;55.10;21.70;100457.00;;;;4989618;28;20204;-46
2022/05/25 00:15:19;;;;;;;2.20;2.00;;;20.40;55.30;21.70;100441.00;;;;4989466;28;20185;-46
2022/05/25 00:17:47;;;;;;;2.37;2.00;;;20.40;55.20;21.70;100445.00;;;;4988906;28;20186;-47
2022/05/25 00:20:12;;;;;;;2.20;2.00;;;20.40;55.10;21.70;100448.00;;;;4988677;28;20193;-46
2022/05/25 00:22:40;;;;;;;2.23;1.90;;;20.40;55.10;21.70;100457.00;;;;4988951;28;20167;-47
2022/05/25 00:25:07;;;;;;;2.47;2.23;;;20.40;55.20;21.70;100458.00;;;;4988814;28;20674;-47
2022/05/25 00:27:33;;;;;;;3.13;2.17;;;20.40;55.30;21.60;100454.00;;;;4987385;28;20206;-46
2022/05/25 00:30:00;;;;;;;2.37;2.13;;;20.40;55.30;21.60;100464.00;;;;4988473;28;20609;-48
2022/05/25 00:32:26;;;;;;;3.37;2.20;;;20.40;55.30;21.60;100466.00;;;;4988938;28;20291;-47
2022/05/25 00:34:52;;;;;;;3.50;2.10;;;20.40;55.40;21.60;100468.00;;;;4988610;28;20171;-47
2022/05/25 00:37:18;;;;;;;2.40;2.13;;;20.30;55.20;21.60;100464.00;;;;5004203;28;20177;-47
2022/05/25 00:39:44;;;;;;;2.37;2.10;;;20.30;55.30;21.50;100472.00;;;;5008572;28;20216;-46
2022/05/25 00:42:09;;;;;;;3.97;2.10;;;20.30;55.20;21.50;100474.00;;;;4997769;28;20182;-47
2022/05/25 00:44:35;;;;;;;3.20;1.80;;;20.30;55.40;21.50;100468.00;;;;4990600;28;20171;-46
2022/05/25 00:47:01;;;;;;;1.90;1.70;;;20.30;55.40;21.50;100474.00;;;;4988480;28;20185;-47
2022/05/25 00:49:29;;;;;;;2.00;1.80;;;20.20;55.20;21.50;100477.00;;;;4988374;28;20196;-45
2022/05/25 00:52:13;;;;;;;2.60;1.93;;;20.30;55.30;21.40;100482.00;;;;4986987;28;20193;-46
2022/05/25 00:54:51;;;;;;;2.20;2.00;;;20.20;55.20;21.40;100490.00;;;;4970747;28;20172;-45
2022/05/25 00:57:47;;;;;;;3.67;2.50;;;20.30;56.00;21.40;100486.00;;;;4972102;28;20162;-46
2022/05/25 01:00:18;;;;;;;4.03;2.20;;;20.20;55.20;21.40;100476.00;;;;4986716;28;20285;-46
2022/05/25 01:02:47;;;;;;;2.80;2.17;;;20.20;55.30;21.10;100479.00;;;;4986990;28;20655;-47
2022/05/25 01:05:15;;;;;;;2.00;1.80;;;20.20;55.30;21.40;100489.00;;;;4987776;28;20221;-51
2022/05/25 01:08:07;;;;;;;4.63;2.10;;;20.20;55.30;21.30;100461.00;;;;4987701;28;20205;-46
2022/05/25 01:10:57;;;;;;;2.80;2.10;;;20.30;55.30;21.30;100492.00;;;;4970818;28;20224;-47
2022/05/25 01:14:01;;;;;;;3.47;2.17;;;20.20;55.30;21.10;100500.00;;;;4986720;28;20162;-46
2022/05/25 01:16:45;;;;;;;3.40;2.10;;;20.20;55.30;21.20;100495.00;;;;4973556;28;20246;-47
2022/05/25 01:19:43;;;;;;;2.43;2.13;;;20.10;55.10;21.20;100498.00;;;;4987385;28;20279;-46
2022/05/25 01:23:08;;;;;;;2.97;2.10;;;20.10;55.30;21.20;100502.00;;;;4986841;28;20185;-47
2022/05/25 01:25:58;;;;;;;2.17;2.07;;;20.10;55.50;21.20;100505.00;;;;4986999;28;20524;-46
2022/05/25 01:29:13;;;;;;;2.20;2.00;;;20.00;55.30;21.10;100508.00;;;;4971436;28;20215;-46
2022/05/25 01:32:21;;;;;;;2.83;2.30;;;20.10;55.40;21.10;100513.00;;;;4986405;28;20199;-47
2022/05/25 01:34:58;;;;;;;2.87;2.10;;;20.10;55.50;21.10;100512.00;;;;4986537;28;20192;-47
2022/05/25 01:37:37;;;;;;;2.50;2.20;;;20.00;55.40;21.10;100514.00;;;;4971021;28;20168;-47
2022/05/25 01:40:29;;;;;;;1.90;1.80;;;20.10;55.40;21.00;100517.00;;;;4985930;28;20219;-47
2022/05/25 01:42:59;;;;;;;2.27;2.07;;;20.00;55.40;21.00;100512.00;;;;4986347;28;20183;-47
2022/05/25 01:45:29;;;;;;;2.20;2.00;;;20.00;55.50;21.00;100524.00;;;;4970231;28;20257;-47
2022/05/25 01:47:55;;;;;;;3.00;2.17;;;20.00;55.60;21.00;100525.00;;;;4970418;28;20172;-46
2022/05/25 01:50:24;;;;;;;2.47;2.27;;;19.90;55.50;21.00;100518.00;;;;4969798;28;20200;-46
2022/05/25 01:52:54;;;;;;;2.93;2.00;;;19.90;55.60;21.00;100518.00;;;;4970080;28;20580;-47
2022/05/25 01:55:33;;;;;;;4.27;2.03;;;19.90;55.50;21.00;100517.00;;;;4970538;28;20219;-47
2022/05/25 01:58:02;;;;;;;2.37;2.13;;;19.90;55.60;21.00;100508.00;;;;4969945;28;20176;-47
2022/05/25 02:00:30;;;;;;;2.23;2.03;;;19.90;55.70;21.00;100522.00;;;;4969897;28;20200;-47
2022/05/25 02:05:47;;;;;;;2.60;2.20;;;19.90;55.70;21.00;100519.00;;;;4988581;28;20274;-49
2022/05/25 02:08:51;;;;;;;3.00;2.20;;;19.80;55.80;20.90;100515.00;;;;4993913;28;20165;-47
2022/05/25 02:11:55;;;;;;;2.50;2.30;;;19.80;55.90;20.90;100507.00;;;;4973753;28;20176;-46
2022/05/25 02:14:44;;;;;;;2.47;2.27;;;19.70;55.80;20.90;100515.00;;;;4973677;28;20176;-46
2022/05/25 02:17:50;;;;;;;2.90;2.50;;;19.70;55.80;20.90;100526.00;;;;4970557;28;20172;-47
2022/05/25 02:20:58;;;;;;;3.03;2.53;;;19.70;55.80;20.80;100528.00;;;;4985913;28;20192;-47
2022/05/25 02:23:47;;;;;;;2.80;2.47;;;19.80;55.70;20.80;100526.00;;;;4985450;28;20311;-46
2022/05/25 02:26:28;;;;;;;3.80;2.40;;;19.70;55.40;20.80;100539.00;;;;4985631;28;20175;-46
2022/05/25 02:29:16;;;;;;;2.43;2.20;;;19.70;55.50;20.80;100528.00;;;;4985982;28;20171;-47
2022/05/25 02:32:31;;;;;;;2.83;2.30;;;19.70;55.50;20.70;100539.00;;;;4970171;28;20269;-46
2022/05/25 02:34:57;;;;;;;2.97;2.30;;;19.70;55.60;20.70;100542.00;;;;4964636;28;20183;-46
2022/05/25 02:37:24;;;;;;;2.60;2.40;;;19.70;55.50;20.70;100543.00;;;;4985311;28;20196;-45
2022/05/25 02:39:53;;;;;;;2.60;2.40;;;19.70;55.60;20.70;100536.00;;;;4969428;28;20189;-46
2022/05/25 02:42:19;;;;;;;2.60;2.40;;;19.70;55.60;20.70;100546.00;;;;4969417;28;20177;-46
2022/05/25 02:44:45;;;;;;;2.40;2.10;;;19.60;55.60;20.70;100541.00;;;;4986687;28;20183;-46
2022/05/25 02:47:11;;;;;;;2.33;2.13;;;19.60;55.60;20.70;100541.00;;;;4986552;28;20196;-46
2022/05/25 02:49:37;;;;;;;2.33;2.13;;;19.60;55.50;20.60;100534.00;;;;4985365;28;20814;-46
2022/05/25 02:52:04;;;;;;;2.10;1.90;;;19.60;55.40;20.60;100541.00;;;;4986523;28;20279;-48
2022/05/25 02:54:29;;;;;;;2.60;2.10;;;19.50;55.30;20.60;100544.00;;;;4986798;28;20275;-47
2022/05/25 02:56:55;;;;;;;2.90;1.90;;;19.60;55.50;20.60;100549.00;;;;4986482;28;20177;-47
2022/05/25 02:59:21;;;;;;;2.57;2.20;;;19.60;55.40;20.60;100539.00;;;;4985631;28;20192;-47
2022/05/25 03:01:46;;;;;;;2.20;2.00;;;19.50;55.30;20.60;100547.00;;;;4986064;28;20172;-47
2022/05/25 03:04:12;;;;;;;2.30;2.10;;;19.50;55.30;20.60;100554.00;;;;4986358;28;20650;-47
2022/05/25 03:06:38;;;;;;;2.30;2.10;;;19.50;55.30;20.50;100562.00;;;;4985683;28;20845;-47
2022/05/25 03:09:03;;;;;;;2.43;2.07;;;19.50;55.40;20.50;100561.00;;;;4985793;28;20172;-47
2022/05/25 03:11:29;;;;;;;2.50;2.30;;;19.40;55.40;20.50;100561.00;;;;4981457;28;20209;-47
2022/05/25 03:13:55;;;;;;;2.00;1.90;;;19.50;55.50;20.50;100565.00;;;;4975889;28;20721;-47
2022/05/25 03:16:22;;;;;;;2.47;2.10;;;19.50;55.60;20.50;100564.00;;;;4984977;28;20549;-47
2022/05/25 03:18:48;;;;;;;2.43;2.00;;;19.50;55.50;20.50;100567.00;;;;4989472;28;20649;-47
2022/05/25 03:21:14;;;;;;;3.10;2.20;;;19.40;55.40;20.50;100559.00;;;;4992295;28;20192;-47
2022/05/25 03:23:40;;;;;;;4.77;2.17;;;19.50;55.40;20.50;100564.00;;;;4991911;28;20845;-47
2022/05/25 03:26:06;;;;;;;2.17;2.00;;;19.40;55.50;20.40;100568.00;;;;4991681;28;20169;-47
2022/05/25 03:28:31;;;;;;;2.17;1.97;;;19.40;55.50;20.40;100573.00;;;;4991550;28;20195;-47
2022/05/25 03:30:57;;;;;;;2.90;2.20;;;19.40;55.80;20.40;100580.00;;;;5006565;28;20189;-47
2022/05/25 03:33:23;;;;;;;3.40;2.07;;;19.30;55.80;20.40;100580.00;;;;4991312;28;20879;-48
2022/05/25 03:35:48;;;;;;;3.60;2.03;;;19.30;55.40;20.40;100589.00;;;;4991579;28;20168;-47
2022/05/25 03:38:14;;;;;;;7.53;5.13;;;19.30;55.40;20.40;100581.00;;;;4994200;28;20187;-46
2022/05/25 03:40:40;;;;;;;7.37;6.73;;;19.30;55.40;20.40;100579.00;;;;5003795;28;20188;-46
2022/05/25 03:43:07;;;;;;;7.47;6.77;;;19.30;55.60;20.30;100586.00;;;;4991285;28;20191;-47
2022/05/25 03:45:34;;;;;;;11.03;9.90;;;19.30;55.40;20.30;100520.00;;;;4990036;28;20212;-46
2022/05/25 03:48:00;;;;;;;4.47;4.03;;;19.30;55.40;20.30;100581.00;;;;4991101;28;20650;-46
2022/05/25 03:50:25;;;;;;;4.93;3.40;;;19.30;55.50;20.30;100595.00;;;;4991064;28;20372;-46
2022/05/25 03:52:51;;;;;;;4.47;2.83;;;19.30;55.40;20.30;100591.00;;;;4990059;28;20200;-46
2022/05/25 03:55:17;;;;;;;3.40;2.80;;;19.20;55.60;20.30;100597.00;;;;5001486;28;20175;-48
2022/05/25 03:57:43;;;;;;;3.07;2.77;;;19.20;55.30;20.20;100598.00;;;;5006963;28;20176;-48
2022/05/25 04:00:09;;;;;;;3.13;2.77;;;19.20;55.50;20.20;100604.00;;;;4999227;28;20189;-47
2022/05/25 04:02:34;;;;;;;3.03;2.50;;;19.20;55.50;20.20;100606.00;;;;4990237;28;20184;-47
2022/05/25 04:05:10;;;;;;;5.27;2.50;;;19.20;55.60;20.10;100609.00;;;;4990488;28;20179;-46
2022/05/25 04:07:45;;;;;;;4.40;2.30;;;19.10;55.80;20.20;100612.00;;;;4991066;28;20265;-46
2022/05/25 04:10:16;;;;;;;2.73;2.03;;;19.20;55.50;20.20;100617.00;;;;4991209;28;20207;-46
2022/05/25 04:12:43;;;;;;;2.83;2.30;;;19.20;55.50;20.20;100617.00;;;;4991377;28;20212;-45
2022/05/25 04:15:12;;;;;;;3.40;2.40;;;19.20;55.30;20.20;100617.00;;;;4990834;28;20169;-46
2022/05/25 04:17:37;;;;;;;4.30;2.40;;;19.20;55.30;20.20;100621.00;;;;4991277;28;20267;-45
2022/05/25 04:20:04;;;;;;;4.47;2.47;;;19.20;55.40;20.20;100619.00;;;;4991541;28;20196;-45
2022/05/25 04:22:32;;;;;;;4.63;2.07;;;19.10;55.50;20.10;100617.00;;;;4974714;28;20192;-46
2022/05/25 04:24:59;;;;;;;6.73;2.50;;;19.10;55.40;20.10;100617.00;;;;4991301;28;20620;-45
2022/05/25 04:27:25;;;;;;;5.67;2.40;;;19.00;56.00;20.10;100623.00;;;;4990878;28;20780;-46
2022/05/25 04:29:51;;;;;;;5.03;2.43;;;19.00;56.10;20.10;100631.00;;;;4989978;28;20197;-47
2022/05/25 04:32:17;;;;;;;2.93;2.30;;;19.00;55.90;20.10;100623.00;;;;4990436;28;20203;-47
2022/05/25 04:34:43;;;;;;;5.03;2.30;;;19.00;55.60;20.10;100628.00;;;;4990886;28;20180;-46
2022/05/25 04:39:53;;;;;;;3.17;2.30;;;19.00;56.20;20.00;100635.00;;;;4990558;28;20231;-47
2022/05/25 04:42:19;;;;;;;27.37;3.60;;;19.00;55.90;20.00;100632.00;;;;4990954;28;20647;-46
2022/05/25 04:44:45;;;;;;;5.50;2.27;;;18.90;56.10;20.00;100637.00;;;;4990155;28;20190;-47
2022/05/25 04:47:10;;;;;;;3.63;2.50;;;18.90;56.00;20.00;100633.00;;;;4990573;28;20184;-47
2022/05/25 04:49:36;;;;;;;3.63;2.00;;;19.00;55.90;20.00;100636.00;;;;4990379;28;20207;-47
2022/05/25 04:52:02;;;;;;;4.63;2.40;;;18.90;55.80;20.00;100632.00;;;;4990373;28;20265;-46
2022/05/25 04:54:28;;;;;;;2.83;2.30;;;18.90;56.10;20.00;100642.00;;;;4990403;28;20182;-46
2022/05/25 04:59:38;;;;;;;3.17;2.10;;;19.00;56.10;20.00;100648.00;;;;4990423;28;20207;-49
2022/05/25 05:02:04;;;;;;;3.00;2.60;;;18.90;56.00;20.00;100655.00;;;;4990292;28;20184;-49
2022/05/25 05:04:30;;;;;;;2.70;2.50;;;18.90;56.10;20.00;100663.00;;;;4989822;28;20184;-48
2022/05/25 05:06:55;;;;;;;5.47;2.70;;;18.90;56.20;20.00;100651.00;;;;4990451;28;20226;-48
2022/05/25 05:09:21;;;;;;;2.77;2.50;;;18.90;56.40;19.90;100661.00;;;;4990194;28;20207;-48
2022/05/25 05:11:47;;;;;;;2.80;2.50;;;18.90;56.40;19.90;100649.00;;;;4989810;28;20208;-46
2022/05/25 05:14:16;;;;;;;2.83;2.50;;;18.80;56.30;20.00;100655.00;;;;4989503;28;20168;-48
2022/05/25 05:16:41;;;;;;;3.73;2.60;;;18.70;56.60;19.90;100670.00;;;;4987535;28;20630;-50
2022/05/25 05:19:07;;;;;;;3.87;2.60;;;18.70;56.70;19.90;100668.00;;;;4988147;28;20179;-48
2022/05/25 05:21:33;;;;;;;4.57;2.70;;;18.70;56.70;19.90;100674.00;;;;5000405;28;20255;-48
2022/05/25 05:23:59;;;;;;;4.07;2.80;;;18.70;56.80;19.90;100670.00;;;;4994124;28;20176;-47
2022/05/25 05:26:25;;;;;;;4.67;2.87;;;18.50;57.10;19.90;100666.00;;;;4988558;28;20211;-48
2022/05/25 05:28:53;;;;;;;4.77;2.40;;;18.50;57.80;19.90;100677.00;;;;4910541;28;20246;-48
2022/05/25 05:31:19;;;;;;;5.03;2.57;;;18.50;57.30;19.90;100655.00;;;;4990400;28;20186;-48
2022/05/25 05:33:44;;;;;;;4.47;2.73;;;18.40;57.10;19.90;100678.00;;;;4989611;28;20645;-46
2022/05/25 05:36:26;;;;;;;3.53;2.60;;;18.40;57.30;19.90;100684.00;;;;4990015;28;20178;-47
2022/05/25 05:38:57;;;;;;;3.13;2.60;;;18.40;57.40;19.80;100670.00;;;;4989054;28;20160;-48
2022/05/25 05:41:23;;;;;;;3.23;2.67;;;18.20;57.40;19.80;100669.00;;;;4988755;28;20243;-47
2022/05/25 05:43:49;;;;;;;3.20;2.57;;;18.40;57.60;19.80;100671.00;;;;4972167;28;20218;-47
2022/05/25 05:46:15;;;;;;;3.00;2.50;;;18.40;57.40;19.80;100677.00;;;;4988381;28;20176;-46
2022/05/25 05:48:40;;;;;;;6.60;2.90;;;18.50;57.20;19.80;100690.00;;;;4988184;28;20176;-49
2022/05/25 05:51:06;;;;;;;4.37;2.73;;;18.50;57.30;19.80;100682.00;;;;4987970;28;20207;-46
2022/05/25 05:53:32;;;;;;;4.60;2.77;;;18.40;57.30;19.70;100676.00;;;;4987723;28;20204;-46
2022/05/25 05:55:58;;;;;;;4.83;2.80;;;18.40;57.40;19.70;100682.00;;;;4971558;28;20279;-47
2022/05/25 05:58:24;;;;;;;2.87;2.30;;;18.40;57.50;19.70;100688.00;;;;4971726;28;20218;-48
2022/05/25 06:00:50;;;;;;;4.57;2.90;;;18.30;57.50;19.70;100691.00;;;;4988633;28;20200;-48
2022/05/25 06:03:15;;;;;;;4.70;2.80;;;18.30;57.50;19.70;100687.00;;;;4989195;28;20583;-48
2022/05/25 06:05:42;;;;;;;3.70;2.77;;;18.30;57.50;19.70;100687.00;;;;4981457;28;20188;-47
2022/05/25 06:08:15;;;;;;;5.97;2.97;;;18.30;57.50;19.60;100688.00;;;;4969605;28;20761;-47
2022/05/25 06:10:41;;;;;;;5.27;3.10;;;18.40;57.40;19.60;100684.00;;;;4969988;28;20214;-47
2022/05/25 06:13:07;;;;;;;3.93;2.70;;;18.20;57.30;19.60;100698.00;;;;4969996;28;20205;-47
2022/05/25 06:21:06;;;;;;;4.33;2.97;;;18.20;57.30;19.50;100706.00;;;;4976668;28;20754;-50
2022/05/25 06:23:33;;;;;;;3.83;2.97;;;18.10;57.30;19.40;100699.00;;;;4988961;28;20274;-51
2022/05/25 06:25:58;;;;;;;4.60;3.10;;;18.00;57.20;19.40;100704.00;;;;4988779;28;20203;-50
2022/05/25 06:28:24;;;;;;;3.20;2.60;;;17.90;57.50;19.40;100700.00;;;;4917757;28;20214;-50
2022/05/25 06:30:50;;;;;;;4.93;2.90;;;17.90;57.50;19.40;100699.00;;;;4989083;28;20564;-49
2022/05/25 06:33:16;;;;;;;5.10;2.60;;;18.00;57.30;19.30;100706.00;;;;4989007;28;20219;-50
2022/05/25 06:35:41;;;;;;;3.87;2.60;;;17.90;57.30;19.30;100716.00;;;;4988892;28;20905;-48
2022/05/25 06:38:07;;;;;;;5.17;2.77;;;17.80;57.00;19.30;100710.00;;;;4988852;28;20668;-49
2022/05/25 06:40:33;;;;;;;4.23;2.33;;;17.70;56.80;19.20;100711.00;;;;4988706;28;20190;-49
2022/05/25 06:42:59;;;;;;;3.77;2.50;;;17.70;56.90;18.90;100718.00;;;;4986480;28;20194;-48
2022/05/25 06:45:24;;;;;;;5.07;2.63;;;17.60;56.90;19.10;100720.00;;;;4976915;28;20196;-49
2022/05/25 06:47:50;;;;;;;3.40;2.37;;;17.60;56.90;19.10;100720.00;;;;4969069;28;20173;-48
2022/05/25 06:50:16;;;;;;;6.20;2.63;;;17.60;56.90;19.00;100720.00;;;;4979396;28;20251;-48
2022/05/25 06:52:42;;;;;;;2.43;2.20;;;17.50;56.80;19.00;100721.00;;;;4976169;28;20251;-50
2022/05/25 06:55:07;;;;;;;4.50;2.57;;;17.50;56.80;19.00;100720.00;;;;4972927;28;20635;-50
2022/05/25 06:57:33;;;;;;;4.57;2.53;;;17.50;56.70;18.90;100721.00;;;;4973224;28;20185;-48
2022/05/25 06:59:59;;;;;;;4.10;2.60;;;17.50;56.60;18.90;100722.00;;;;4973674;28;20199;-48
2022/05/25 07:02:25;;;;;;;3.53;2.40;;;17.40;56.70;18.90;100717.00;;;;4986994;28;20701;-49
2022/05/25 07:04:52;;;;;;;3.67;2.20;;;17.40;56.70;18.90;100733.00;;;;4982311;28;20228;-49
2022/05/25 07:07:18;;;;;;;4.23;2.00;;;17.60;56.70;18.90;100721.00;;;;4981718;28;20176;-49
2022/05/25 07:09:43;;;;;;;2.77;2.07;;;17.70;56.40;18.90;100655.00;;;;4989271;28;20204;-48
2022/05/25 07:12:09;;;;;;;3.07;2.20;;;17.80;56.30;18.80;100719.00;;;;4988850;28;20214;-50
2022/05/25 07:14:35;;;;;;;2.80;2.10;;;17.80;56.20;18.90;100721.00;;;;4992495;28;20207;-50
2022/05/25 07:17:02;;;;;;;3.63;2.10;;;17.90;56.10;18.90;100727.00;;;;4993084;28;20538;-48
2022/05/25 07:19:27;;;;;;;2.97;1.77;;;17.90;56.10;19.00;100722.00;;;;4983192;28;20260;-49
2022/05/25 07:21:53;;;;;;;2.40;2.00;;;17.90;56.00;19.00;100723.00;;;;4988099;28;20286;-50
2022/05/25 07:24:19;;;;;;;3.43;1.90;;;17.90;56.00;19.00;100727.00;;;;4987051;28;20360;-49
2022/05/25 07:26:44;;;;;;;3.67;1.97;;;17.90;56.00;19.00;100723.00;;;;4992196;28;20290;-49
2022/05/25 07:29:11;;;;;;;3.43;2.10;;;17.90;56.00;19.00;100724.00;;;;4917533;28;20578;-49
2022/05/25 07:31:42;;;;;;;4.70;2.00;;;18.00;56.30;19.00;100733.00;;;;4991603;28;20685;-49
2022/05/25 07:34:18;;;;;;;3.03;2.07;;;18.00;56.20;19.10;100734.00;;;;4990949;28;20179;-49
2022/05/25 07:36:55;;;;;;;5.73;1.80;;;18.00;56.10;19.10;100733.00;;;;4991138;28;20182;-47
2022/05/25 07:39:23;;;;;;;3.90;1.93;;;18.10;56.20;19.10;100732.00;;;;4990902;28;20222;-49
2022/05/25 07:41:53;;;;;;;2.60;1.90;;;18.00;56.10;19.10;100728.00;;;;4991977;28;20188;-49
2022/05/25 07:44:26;;;;;;;4.27;1.90;;;18.10;56.20;19.10;100735.00;;;;4990481;28;20233;-48
2022/05/25 07:46:52;;;;;;;3.10;1.90;;;18.10;56.20;19.10;100732.00;;;;4990586;28;20214;-49
2022/05/25 07:49:18;;;;;;;2.90;1.90;;;18.10;56.10;19.10;100735.00;;;;4991359;28;20207;-49
2022/05/25 07:51:44;;;;;;;3.13;2.00;;;18.10;56.50;19.10;100731.00;;;;4992286;28;20226;-48
2022/05/25 07:54:11;;;;;;;3.47;1.70;;;18.10;56.20;19.10;100731.00;;;;4990481;28;20179;-48
2022/05/25 07:56:37;;;;;;;2.80;1.90;;;18.10;56.40;19.20;100739.00;;;;4990552;28;20247;-50
2022/05/25 07:59:09;;;;;;;2.70;1.90;;;18.10;57.20;19.20;100743.00;;;;4990998;28;20180;-49
2022/05/25 08:07:18;;;;;;;2.37;1.80;;;18.20;56.70;19.20;100747.00;;;;4976689;28;20175;-49
2022/05/25 08:09:44;;;;;;;3.20;1.90;;;18.10;56.70;19.20;100742.00;;;;4973807;28;20199;-49
2022/05/25 08:12:10;;;;;;;2.57;1.80;;;18.20;56.70;19.20;100743.00;;;;4991020;28;20612;-53
2022/05/25 08:14:35;;;;;;;1.90;1.50;;;18.20;56.80;19.30;100739.00;;;;4990123;28;20266;-48
2022/05/25 08:17:03;;;;;;;2.00;1.80;;;18.20;56.80;19.30;100739.00;;;;4991484;28;20197;-49
2022/05/25 08:19:30;;;;;;;2.90;1.80;;;18.20;56.70;19.30;100736.00;;;;4989682;28;20619;-49
2022/05/25 08:21:55;;;;;;;1.83;1.60;;;18.20;56.80;19.30;100751.00;;;;4990823;28;20275;-49
2022/05/25 08:24:21;;;;;;;3.50;1.90;;;18.20;57.00;19.30;100750.00;;;;4990983;28;20186;-49
2022/05/25 08:26:47;;;;;;;4.47;1.90;;;18.20;56.80;19.30;100745.00;;;;4990854;28;20183;-49
2022/05/25 08:29:13;;;;;;;2.57;1.50;;;18.20;56.90;19.30;100743.00;;;;4918852;28;20211;-49
2022/05/25 08:31:38;;;;;;;2.83;1.77;;;18.20;56.90;19.30;100674.00;;;;4990542;28;20207;-49
2022/05/25 08:34:05;;;;;;;3.27;1.87;;;18.20;56.70;19.30;100751.00;;;;4990482;28;20189;-50
2022/05/25 08:36:31;;;;;;;3.50;1.70;;;18.20;56.80;19.30;100743.00;;;;4990614;28;20238;-50
2022/05/25 08:38:57;;;;;;;2.57;1.80;;;18.20;56.80;19.30;100742.00;;;;4989255;28;20203;-50
2022/05/25 08:41:31;;;;;;;5.33;1.70;;;18.30;57.10;19.40;100735.00;;;;4980273;28;20242;-49
2022/05/25 08:43:57;;;;;;;5.43;2.00;;;18.30;57.50;19.40;100730.00;;;;4978445;28;20796;-48
2022/05/25 08:46:23;;;;;;;6.83;1.97;;;18.20;57.30;19.40;100747.00;;;;4980940;28;20182;-49
2022/05/25 08:48:50;;;;;;;9.83;2.53;;;18.30;58.30;19.40;100750.00;;;;4990411;28;20172;-49
2022/05/25 08:51:22;;;;;;;17.13;3.13;;;18.30;58.80;19.40;100747.00;;;;4990411;28;20203;-49
2022/05/25 08:53:48;;;;;;;13.03;3.00;;;18.30;59.10;19.40;100732.00;;;;4990208;28;20163;-49
2022/05/25 08:56:43;;;;;;;13.73;3.07;;;18.30;59.10;19.40;100733.00;;;;4989915;28;20180;-49
2022/05/25 08:59:35;;;;;;;15.47;3.10;;;18.30;59.50;19.40;100740.00;;;;4989092;28;20192;-49
2022/05/25 09:02:28;;;;;;;13.63;2.80;;;18.40;59.70;19.50;100745.00;;;;4989602;28;20226;-49
2022/05/25 09:05:18;;;;;;;7.87;2.23;;;18.40;59.60;19.50;100753.00;;;;4988451;28;20187;-51
2022/05/25 09:08:40;;;;;;;7.37;2.30;;;18.40;59.50;19.50;100743.00;;;;4988939;28;20203;-49
2022/05/25 09:11:19;;;;;;;13.97;2.77;;;18.50;60.00;19.50;100750.00;;;;4989968;28;20255;-51
2022/05/25 09:14:12;;;;;;;10.30;2.67;;;18.50;59.80;19.50;100742.00;;;;4988938;28;20555;-48
2022/05/25 09:16:38;;;;;;;11.33;2.47;;;18.60;59.90;19.50;100747.00;;;;4991571;28;20176;-56
2022/05/25 09:19:23;;;;;;;8.17;2.30;;;18.60;59.80;19.50;100742.00;;;;4995964;28;20597;-50
2022/05/25 09:22:00;;;;;;;5.10;2.07;;;18.60;59.80;19.50;100748.00;;;;4990313;28;20218;-49
2022/05/25 09:24:27;;;;;;;7.47;1.70;;;18.60;60.00;19.50;100743.00;;;;4973273;28;20160;-50
2022/05/25 09:26:53;;;;;;;7.27;1.90;;;18.60;60.20;19.60;100749.00;;;;4989738;28;20680;-50
2022/05/25 09:29:20;;;;;;;5.00;1.67;;;18.70;60.00;19.60;100741.00;;;;4902177;28;20227;-49
2022/05/25 09:31:55;;;;;;;7.00;2.17;;;18.60;60.00;19.60;100751.00;;;;4989321;28;20857;-50
2022/05/25 09:34:47;;;;;;;5.03;1.80;;;18.60;60.10;19.60;100746.00;;;;4973568;28;20198;-51
2022/05/25 09:37:35;;;;;;;6.67;1.90;;;18.70;60.30;19.70;100740.00;;;;4958791;28;20253;-50
2022/05/25 09:40:05;;;;;;;3.20;1.80;;;18.70;60.60;19.60;100745.00;;;;4964918;28;20202;-50
2022/05/25 09:42:34;;;;;;;2.23;1.70;;;18.70;60.40;19.70;100748.00;;;;4980927;28;20774;-51
2022/05/25 09:45:00;;;;;;;7.13;1.90;;;18.80;60.50;19.70;100744.00;;;;4970151;28;20877;-50
2022/05/25 09:47:41;;;;;;;5.17;1.70;;;18.80;60.60;19.70;100743.00;;;;4969885;28;20181;-49
2022/05/25 09:50:08;;;;;;;8.00;1.83;;;18.80;60.40;19.70;100731.00;;;;4969864;28;20192;-50
2022/05/25 09:52:45;;;;;;;7.23;2.00;;;18.90;60.40;19.70;100768.00;;;;4952583;28;20255;-50
2022/05/25 09:55:20;;;;;;;6.33;1.87;;;18.80;60.50;19.80;100757.00;;;;4969192;28;20177;-51
2022/05/25 09:57:53;;;;;;;2.57;1.53;;;18.90;60.50;19.80;100763.00;;;;4953581;28;20170;-49
2022/05/25 10:00:33;;;;;;;5.97;2.00;;;18.90;60.30;19.80;100761.00;;;;4969817;28;20192;-50
2022/05/25 10:03:07;;;;;;;2.57;1.67;;;18.90;60.30;19.80;100757.00;;;;4969613;28;20172;-51
2022/05/25 10:05:51;;;;;;;3.17;1.47;;;18.90;60.40;19.80;100764.00;;;;4938377;28;20170;-50
2022/05/25 10:08:37;;;;;;;2.73;1.30;;;18.90;60.30;19.90;100753.00;;;;4954743;28;20164;-50
2022/05/25 10:11:30;;;;;;;2.00;1.30;;;19.00;60.40;19.90;100761.00;;;;4951825;28;20570;-50
2022/05/25 10:13:57;;;;;;;1.87;1.37;;;19.00;60.30;19.90;100752.00;;;;4969669;28;20173;-50
2022/05/25 10:16:28;;;;;;;2.13;1.20;;;19.00;60.30;19.90;100748.00;;;;4952727;28;20248;-50
2022/05/25 10:18:54;;;;;;;3.73;1.60;;;19.00;60.30;19.90;100757.00;;;;4987700;28;20186;-50
2022/05/25 10:21:34;;;;;;;2.80;1.70;;;19.00;60.50;19.90;100754.00;;;;4988621;28;20192;-51
2022/05/25 10:24:00;;;;;;;14.10;2.40;;;19.10;60.70;20.00;100754.00;;;;4972677;28;20194;-51
2022/05/25 10:26:38;;;;;;;6.00;2.00;;;19.10;60.30;20.00;100749.00;;;;4988964;28;20201;-50
2022/05/25 10:29:10;;;;;;;9.83;2.80;;;19.10;60.40;20.00;100748.00;;;;4914396;28;20185;-50
2022/05/25 10:37:37;;;;;;;8.10;2.10;;;19.20;60.90;20.10;100757.00;;;;4991865;28;20163;-48
2022/05/25 10:40:06;;;;;;;5.77;2.20;;;19.20;61.30;20.10;100745.00;;;;4994074;28;20192;-51
2022/05/25 10:42:39;;;;;;;5.87;2.20;;;19.20;61.30;20.10;100741.00;;;;4993698;28;20176;-48
2022/05/25 10:45:21;;;;;;;4.20;2.10;;;19.30;61.40;20.10;100720.00;;;;4993466;28;20203;-49
2022/05/25 10:47:57;;;;;;;6.23;2.17;;;19.20;61.00;20.10;100728.00;;;;4991548;28;20183;-51
2022/05/25 10:50:42;;;;;;;8.07;2.00;;;19.30;60.80;20.10;100725.00;;;;4991130;28;20250;-49
2022/05/25 10:53:43;;;;;;;7.53;2.33;;;19.30;61.40;20.20;100733.00;;;;4991662;28;20207;-48
2022/05/25 10:56:21;;;;;;;5.27;2.00;;;19.30;61.40;20.20;100736.00;;;;4993062;28;20242;-50
2022/05/25 10:59:05;;;;;;;6.70;2.30;;;19.30;60.90;20.20;100662.00;;;;4990877;28;20164;-50
2022/05/25 11:01:56;;;;;;;10.17;2.13;;;19.40;61.00;20.20;100733.00;;;;4976953;28;20176;-49
2022/05/25 11:05:02;;;;;;;6.87;2.17;;;19.40;61.30;20.20;100745.00;;;;4992796;28;20153;-50
2022/05/25 11:07:41;;;;;;;3.70;1.83;;;19.40;61.30;20.20;100736.00;;;;4992203;28;20191;-49
2022/05/25 11:10:17;;;;;;;6.70;1.60;;;19.50;61.70;20.20;100747.00;;;;4992450;28;20199;-49
2022/05/25 11:13:33;;;;;;;4.23;1.80;;;19.50;61.40;20.30;100749.00;;;;4990950;28;20203;-49
2022/05/25 11:16:26;;;;;;;6.43;1.70;;;19.50;61.40;20.30;100740.00;;;;4983480;28;20188;-49
2022/05/25 11:19:04;;;;;;;6.33;2.10;;;19.50;60.70;20.30;100752.00;;;;4979536;28;20172;-48
2022/05/25 11:22:11;;;;;;;4.10;1.60;;;19.60;60.80;20.40;100761.00;;;;4981432;28;20235;-49
2022/05/25 11:25:09;;;;;;;2.20;1.53;;;19.60;61.20;20.40;100759.00;;;;4981136;28;20305;-49
2022/05/25 11:28:10;;;;;;;3.67;1.60;;;19.60;61.10;20.40;100758.00;;;;4980938;28;20527;-49
2022/05/25 11:30:58;;;;;;;3.77;1.70;;;19.70;61.00;20.40;100752.00;;;;4968049;28;20200;-49
2022/05/25 11:33:37;;;;;;;3.70;1.90;;;19.70;60.90;20.50;100755.00;;;;4966790;28;20300;-49
2022/05/25 11:36:37;;;;;;;5.40;1.60;;;19.70;61.70;20.50;100766.00;;;;4985939;28;20186;-50